sensor_id;sensor_type;location;lat;lon;timestamp;P1;durP1;ratioP1;P2;durP2;ratioP2
14732;SDS011;7457;50.960;6.830;2023-07-16T00:00:31;10.77;;;3.08;;
14732;SDS011;7457;50.960;6.830;2023-07-16T00:02:57;12.35;;;2.75;;
14732;SDS011;7457;50.960;6.830;2023-07-16T00:05:22;6.13;;;3.22;;
14732;SDS011;7457;50.960;6.830;2023-07-16T00:07:48;5.88;;;2.38;;
14732;SDS011;7457;50.960;6.830;2023-07-16T00:10:14;10.38;;;2.90;;
14732;SDS011;7457;50.960;6.830;2023-07-16T00:12:39;9.32;;;3.13;;
14732;SDS011;7457;50.960;6.830;2023-07-16T00:15:05;6.50;;;2.85;;
14732;SDS011;7457;50.960;6.830;2023-07-16T00:17:32;10.63;;;2.70;;
14732;SDS011;7457;50.960;6.830;2023-07-16T00:19:59;7.15;;;3.22;;
14732;SDS011;7457;50.960;6.830;2023-07-16T00:22:24;10.30;;;2.90;;
14732;SDS011;7457;50.960;6.830;2023-07-16T00:24:50;13.30;;;2.90;;
14732;SDS011;7457;50.960;6.830;2023-07-16T00:27:15;9.15;;;2.90;;
14732;SDS011;7457;50.960;6.830;2023-07-16T00:29:41;7.82;;;2.60;;
14732;SDS011;7457;50.960;6.830;2023-07-16T00:32:07;7.70;;;2.65;;
14732;SDS011;7457;50.960;6.830;2023-07-16T00:34:32;6.13;;;2.70;;
14732;SDS011;7457;50.960;6.830;2023-07-16T00:36:58;6.40;;;2.80;;
14732;SDS011;7457;50.960;6.830;2023-07-16T00:39:29;10.23;;;2.40;;
14732;SDS011;7457;50.960;6.830;2023-07-16T00:41:55;8.38;;;2.80;;
14732;SDS011;7457;50.960;6.830;2023-07-16T00:44:21;6.35;;;2.42;;
14732;SDS011;7457;50.960;6.830;2023-07-16T00:46:48;3.55;;;2.72;;
14732;SDS011;7457;50.960;6.830;2023-07-16T00:49:14;8.85;;;2.70;;
14732;SDS011;7457;50.960;6.830;2023-07-16T00:51:40;7.07;;;2.80;;
14732;SDS011;7457;50.960;6.830;2023-07-16T00:54:08;4.38;;;2.72;;
14732;SDS011;7457;50.960;6.830;2023-07-16T00:56:34;11.07;;;2.60;;
14732;SDS011;7457;50.960;6.830;2023-07-16T00:59:02;5.40;;;2.30;;
14732;SDS011;7457;50.960;6.830;2023-07-16T01:01:27;5.07;;;2.65;;
14732;SDS011;7457;50.960;6.830;2023-07-16T01:03:53;8.65;;;3.15;;
14732;SDS011;7457;50.960;6.830;2023-07-16T01:06:25;6.40;;;2.47;;
14732;SDS011;7457;50.960;6.830;2023-07-16T01:11:42;5.60;;;2.70;;
14732;SDS011;7457;50.960;6.830;2023-07-16T01:14:08;2.78;;;2.20;;
14732;SDS011;7457;50.960;6.830;2023-07-16T01:16:36;4.35;;;2.22;;
14732;SDS011;7457;50.960;6.830;2023-07-16T01:19:02;5.30;;;2.47;;
14732;SDS011;7457;50.960;6.830;2023-07-16T01:21:31;5.18;;;2.22;;
14732;SDS011;7457;50.960;6.830;2023-07-16T01:24:37;8.50;;;2.50;;
14732;SDS011;7457;50.960;6.830;2023-07-16T01:30:10;11.00;;;2.58;;
14732;SDS011;7457;50.960;6.830;2023-07-16T01:32:40;8.32;;;2.42;;
14732;SDS011;7457;50.960;6.830;2023-07-16T01:35:07;12.23;;;2.60;;
14732;SDS011;7457;50.960;6.830;2023-07-16T01:37:33;5.93;;;2.65;;
14732;SDS011;7457;50.960;6.830;2023-07-16T01:39:59;9.93;;;2.75;;
14732;SDS011;7457;50.960;6.830;2023-07-16T01:42:25;6.57;;;2.20;;
14732;SDS011;7457;50.960;6.830;2023-07-16T01:44:51;7.90;;;2.60;;
14732;SDS011;7457;50.960;6.830;2023-07-16T01:47:31;3.97;;;2.25;;
14732;SDS011;7457;50.960;6.830;2023-07-16T01:50:03;6.97;;;2.00;;
14732;SDS011;7457;50.960;6.830;2023-07-16T01:52:29;6.70;;;2.50;;
14732;SDS011;7457;50.960;6.830;2023-07-16T01:54:54;5.50;;;2.03;;
14732;SDS011;7457;50.960;6.830;2023-07-16T01:57:20;6.78;;;2.22;;
14732;SDS011;7457;50.960;6.830;2023-07-16T01:59:46;5.57;;;2.05;;
14732;SDS011;7457;50.960;6.830;2023-07-16T02:02:11;6.13;;;2.50;;
14732;SDS011;7457;50.960;6.830;2023-07-16T02:04:37;5.18;;;2.30;;
14732;SDS011;7457;50.960;6.830;2023-07-16T02:07:03;5.30;;;2.30;;
14732;SDS011;7457;50.960;6.830;2023-07-16T02:09:29;6.03;;;2.17;;
14732;SDS011;7457;50.960;6.830;2023-07-16T02:11:54;11.60;;;2.70;;
14732;SDS011;7457;50.960;6.830;2023-07-16T02:14:20;4.43;;;2.30;;
14732;SDS011;7457;50.960;6.830;2023-07-16T02:16:46;6.00;;;1.98;;
14732;SDS011;7457;50.960;6.830;2023-07-16T02:19:11;12.02;;;2.30;;
14732;SDS011;7457;50.960;6.830;2023-07-16T02:21:37;5.47;;;2.00;;
14732;SDS011;7457;50.960;6.830;2023-07-16T02:24:02;8.13;;;2.22;;
14732;SDS011;7457;50.960;6.830;2023-07-16T02:26:28;10.77;;;3.05;;
14732;SDS011;7457;50.960;6.830;2023-07-16T02:28:54;8.35;;;2.03;;
14732;SDS011;7457;50.960;6.830;2023-07-16T02:31:20;9.32;;;2.40;;
14732;SDS011;7457;50.960;6.830;2023-07-16T02:33:45;7.57;;;3.13;;
14732;SDS011;7457;50.960;6.830;2023-07-16T02:36:11;10.57;;;2.50;;
14732;SDS011;7457;50.960;6.830;2023-07-16T02:38:36;5.47;;;2.42;;
14732;SDS011;7457;50.960;6.830;2023-07-16T02:41:02;6.32;;;2.47;;
14732;SDS011;7457;50.960;6.830;2023-07-16T02:43:28;7.60;;;2.20;;
14732;SDS011;7457;50.960;6.830;2023-07-16T02:45:53;7.88;;;2.10;;
14732;SDS011;7457;50.960;6.830;2023-07-16T02:48:19;13.75;;;2.42;;
14732;SDS011;7457;50.960;6.830;2023-07-16T02:50:44;6.25;;;2.15;;
14732;SDS011;7457;50.960;6.830;2023-07-16T02:53:10;8.80;;;2.28;;
14732;SDS011;7457;50.960;6.830;2023-07-16T02:55:36;7.45;;;2.22;;
14732;SDS011;7457;50.960;6.830;2023-07-16T02:58:01;3.78;;;1.83;;
14732;SDS011;7457;50.960;6.830;2023-07-16T03:00:30;4.93;;;1.98;;
14732;SDS011;7457;50.960;6.830;2023-07-16T03:02:56;8.82;;;2.60;;
14732;SDS011;7457;50.960;6.830;2023-07-16T03:05:23;9.73;;;2.45;;
14732;SDS011;7457;50.960;6.830;2023-07-16T03:07:49;10.43;;;2.42;;
14732;SDS011;7457;50.960;6.830;2023-07-16T03:10:15;7.65;;;2.53;;
14732;SDS011;7457;50.960;6.830;2023-07-16T03:12:41;7.20;;;2.30;;
14732;SDS011;7457;50.960;6.830;2023-07-16T03:15:06;5.40;;;2.25;;
14732;SDS011;7457;50.960;6.830;2023-07-16T03:17:33;4.07;;;2.20;;
14732;SDS011;7457;50.960;6.830;2023-07-16T03:19:58;7.72;;;2.42;;
14732;SDS011;7457;50.960;6.830;2023-07-16T03:22:24;4.97;;;2.00;;
14732;SDS011;7457;50.960;6.830;2023-07-16T03:24:50;6.72;;;2.13;;
14732;SDS011;7457;50.960;6.830;2023-07-16T03:27:15;8.60;;;2.22;;
14732;SDS011;7457;50.960;6.830;2023-07-16T03:29:41;6.38;;;2.30;;
14732;SDS011;7457;50.960;6.830;2023-07-16T03:32:06;6.03;;;2.13;;
14732;SDS011;7457;50.960;6.830;2023-07-16T03:34:32;7.70;;;2.40;;
14732;SDS011;7457;50.960;6.830;2023-07-16T03:36:58;11.18;;;2.55;;
14732;SDS011;7457;50.960;6.830;2023-07-16T03:39:23;10.27;;;2.60;;
14732;SDS011;7457;50.960;6.830;2023-07-16T03:41:51;6.55;;;1.92;;
14732;SDS011;7457;50.960;6.830;2023-07-16T03:44:17;6.80;;;2.25;;
14732;SDS011;7457;50.960;6.830;2023-07-16T03:46:43;9.75;;;2.20;;
14732;SDS011;7457;50.960;6.830;2023-07-16T03:49:08;5.85;;;2.13;;
14732;SDS011;7457;50.960;6.830;2023-07-16T03:51:34;10.38;;;2.63;;
14732;SDS011;7457;50.960;6.830;2023-07-16T03:53:59;5.93;;;2.60;;
14732;SDS011;7457;50.960;6.830;2023-07-16T03:56:25;4.35;;;2.10;;
14732;SDS011;7457;50.960;6.830;2023-07-16T03:58:51;2.28;;;1.90;;
14732;SDS011;7457;50.960;6.830;2023-07-16T04:01:16;5.85;;;2.30;;
14732;SDS011;7457;50.960;6.830;2023-07-16T04:03:42;6.38;;;2.80;;
14732;SDS011;7457;50.960;6.830;2023-07-16T04:06:08;5.72;;;2.58;;
14732;SDS011;7457;50.960;6.830;2023-07-16T04:08:34;4.20;;;2.30;;
14732;SDS011;7457;50.960;6.830;2023-07-16T04:11:01;7.82;;;2.45;;
14732;SDS011;7457;50.960;6.830;2023-07-16T04:13:27;3.33;;;2.20;;
14732;SDS011;7457;50.960;6.830;2023-07-16T04:15:53;6.70;;;2.92;;
14732;SDS011;7457;50.960;6.830;2023-07-16T04:18:24;10.82;;;2.72;;
14732;SDS011;7457;50.960;6.830;2023-07-16T04:20:50;3.40;;;2.58;;
14732;SDS011;7457;50.960;6.830;2023-07-16T04:23:16;5.85;;;2.28;;
14732;SDS011;7457;50.960;6.830;2023-07-16T04:25:42;5.50;;;2.47;;
14732;SDS011;7457;50.960;6.830;2023-07-16T04:28:07;8.07;;;3.08;;
14732;SDS011;7457;50.960;6.830;2023-07-16T04:30:34;3.88;;;2.50;;
14732;SDS011;7457;50.960;6.830;2023-07-16T04:33:00;6.70;;;2.20;;
14732;SDS011;7457;50.960;6.830;2023-07-16T04:35:25;3.50;;;2.22;;
14732;SDS011;7457;50.960;6.830;2023-07-16T04:37:51;8.93;;;2.40;;
14732;SDS011;7457;50.960;6.830;2023-07-16T04:40:16;4.95;;;2.42;;
14732;SDS011;7457;50.960;6.830;2023-07-16T04:42:42;6.40;;;2.30;;
14732;SDS011;7457;50.960;6.830;2023-07-16T04:45:08;6.10;;;2.47;;
14732;SDS011;7457;50.960;6.830;2023-07-16T04:47:33;3.75;;;2.20;;
14732;SDS011;7457;50.960;6.830;2023-07-16T04:49:59;4.95;;;2.80;;
14732;SDS011;7457;50.960;6.830;2023-07-16T04:52:25;4.85;;;2.10;;
14732;SDS011;7457;50.960;6.830;2023-07-16T04:54:50;5.57;;;2.70;;
14732;SDS011;7457;50.960;6.830;2023-07-16T04:57:19;6.78;;;2.58;;
14732;SDS011;7457;50.960;6.830;2023-07-16T04:59:44;6.68;;;2.40;;
14732;SDS011;7457;50.960;6.830;2023-07-16T05:02:10;6.47;;;2.92;;
14732;SDS011;7457;50.960;6.830;2023-07-16T05:04:36;4.72;;;2.38;;
14732;SDS011;7457;50.960;6.830;2023-07-16T05:07:02;6.32;;;2.95;;
14732;SDS011;7457;50.960;6.830;2023-07-16T05:09:28;7.93;;;3.05;;
14732;SDS011;7457;50.960;6.830;2023-07-16T05:11:54;10.38;;;3.05;;
14732;SDS011;7457;50.960;6.830;2023-07-16T05:14:19;6.80;;;2.85;;
14732;SDS011;7457;50.960;6.830;2023-07-16T05:16:45;6.70;;;2.70;;
14732;SDS011;7457;50.960;6.830;2023-07-16T05:19:11;6.53;;;2.63;;
14732;SDS011;7457;50.960;6.830;2023-07-16T05:21:36;7.68;;;2.30;;
14732;SDS011;7457;50.960;6.830;2023-07-16T05:24:02;4.28;;;2.65;;
14732;SDS011;7457;50.960;6.830;2023-07-16T05:26:28;3.50;;;2.50;;
14732;SDS011;7457;50.960;6.830;2023-07-16T05:28:54;6.28;;;3.28;;
14732;SDS011;7457;50.960;6.830;2023-07-16T05:31:19;4.93;;;2.88;;
14732;SDS011;7457;50.960;6.830;2023-07-16T05:33:45;6.18;;;3.35;;
14732;SDS011;7457;50.960;6.830;2023-07-16T05:36:11;5.90;;;2.92;;
14732;SDS011;7457;50.960;6.830;2023-07-16T05:38:37;8.50;;;2.97;;
14732;SDS011;7457;50.960;6.830;2023-07-16T05:41:03;5.05;;;3.35;;
14732;SDS011;7457;50.960;6.830;2023-07-16T05:43:29;4.97;;;3.03;;
14732;SDS011;7457;50.960;6.830;2023-07-16T05:45:55;7.30;;;3.50;;
14732;SDS011;7457;50.960;6.830;2023-07-16T05:48:21;9.60;;;3.35;;
14732;SDS011;7457;50.960;6.830;2023-07-16T05:50:48;7.60;;;3.00;;
14732;SDS011;7457;50.960;6.830;2023-07-16T05:53:14;8.68;;;3.42;;
14732;SDS011;7457;50.960;6.830;2023-07-16T05:55:40;6.57;;;3.58;;
14732;SDS011;7457;50.960;6.830;2023-07-16T05:58:08;5.88;;;3.28;;
14732;SDS011;7457;50.960;6.830;2023-07-16T06:00:34;7.90;;;3.22;;
14732;SDS011;7457;50.960;6.830;2023-07-16T06:03:01;6.38;;;3.70;;
14732;SDS011;7457;50.960;6.830;2023-07-16T06:05:27;6.40;;;3.10;;
14732;SDS011;7457;50.960;6.830;2023-07-16T06:07:57;7.57;;;3.63;;
14732;SDS011;7457;50.960;6.830;2023-07-16T06:10:23;5.97;;;3.92;;
14732;SDS011;7457;50.960;6.830;2023-07-16T06:12:49;7.95;;;4.10;;
14732;SDS011;7457;50.960;6.830;2023-07-16T06:15:17;9.27;;;4.10;;
14732;SDS011;7457;50.960;6.830;2023-07-16T06:17:43;12.25;;;4.38;;
14732;SDS011;7457;50.960;6.830;2023-07-16T06:20:09;10.85;;;4.00;;
14732;SDS011;7457;50.960;6.830;2023-07-16T06:22:35;8.68;;;4.10;;
14732;SDS011;7457;50.960;6.830;2023-07-16T06:25:00;6.47;;;3.60;;
14732;SDS011;7457;50.960;6.830;2023-07-16T06:27:26;6.95;;;4.25;;
14732;SDS011;7457;50.960;6.830;2023-07-16T06:29:51;12.20;;;4.85;;
14732;SDS011;7457;50.960;6.830;2023-07-16T06:32:17;7.18;;;4.43;;
14732;SDS011;7457;50.960;6.830;2023-07-16T06:34:43;10.65;;;4.95;;
14732;SDS011;7457;50.960;6.830;2023-07-16T06:37:09;7.60;;;4.13;;
14732;SDS011;7457;50.960;6.830;2023-07-16T06:39:34;7.68;;;4.53;;
14732;SDS011;7457;50.960;6.830;2023-07-16T06:42:00;10.43;;;4.68;;
14732;SDS011;7457;50.960;6.830;2023-07-16T06:44:26;10.75;;;4.20;;
14732;SDS011;7457;50.960;6.830;2023-07-16T06:46:51;9.73;;;4.70;;
14732;SDS011;7457;50.960;6.830;2023-07-16T06:49:17;10.63;;;5.03;;
14732;SDS011;7457;50.960;6.830;2023-07-16T06:51:43;9.75;;;4.78;;
14732;SDS011;7457;50.960;6.830;2023-07-16T06:54:09;7.70;;;4.50;;
14732;SDS011;7457;50.960;6.830;2023-07-16T06:56:35;10.40;;;4.82;;
14732;SDS011;7457;50.960;6.830;2023-07-16T06:59:00;9.65;;;4.93;;
14732;SDS011;7457;50.960;6.830;2023-07-16T07:01:26;8.18;;;5.10;;
14732;SDS011;7457;50.960;6.830;2023-07-16T07:03:53;7.95;;;4.20;;
14732;SDS011;7457;50.960;6.830;2023-07-16T07:06:19;9.80;;;4.15;;
14732;SDS011;7457;50.960;6.830;2023-07-16T07:08:46;6.05;;;4.53;;
14732;SDS011;7457;50.960;6.830;2023-07-16T07:11:12;9.73;;;4.53;;
14732;SDS011;7457;50.960;6.830;2023-07-16T07:13:37;7.68;;;4.93;;
14732;SDS011;7457;50.960;6.830;2023-07-16T07:16:03;8.48;;;4.40;;
14732;SDS011;7457;50.960;6.830;2023-07-16T07:18:29;9.80;;;4.80;;
14732;SDS011;7457;50.960;6.830;2023-07-16T07:20:54;9.27;;;4.53;;
14732;SDS011;7457;50.960;6.830;2023-07-16T07:23:20;7.05;;;4.53;;
14732;SDS011;7457;50.960;6.830;2023-07-16T07:25:49;9.02;;;4.72;;
14732;SDS011;7457;50.960;6.830;2023-07-16T07:28:16;10.52;;;4.68;;
14732;SDS011;7457;50.960;6.830;2023-07-16T07:30:41;7.38;;;4.18;;
14732;SDS011;7457;50.960;6.830;2023-07-16T07:33:07;7.15;;;4.45;;
14732;SDS011;7457;50.960;6.830;2023-07-16T07:35:33;7.82;;;4.50;;
14732;SDS011;7457;50.960;6.830;2023-07-16T07:37:58;7.20;;;4.65;;
14732;SDS011;7457;50.960;6.830;2023-07-16T07:40:24;9.57;;;4.45;;
14732;SDS011;7457;50.960;6.830;2023-07-16T07:42:51;8.07;;;4.50;;
14732;SDS011;7457;50.960;6.830;2023-07-16T07:45:16;6.20;;;4.40;;
14732;SDS011;7457;50.960;6.830;2023-07-16T07:47:42;8.88;;;4.50;;
14732;SDS011;7457;50.960;6.830;2023-07-16T07:50:08;6.78;;;4.38;;
14732;SDS011;7457;50.960;6.830;2023-07-16T07:52:34;5.70;;;3.90;;
14732;SDS011;7457;50.960;6.830;2023-07-16T07:54:59;11.32;;;4.53;;
14732;SDS011;7457;50.960;6.830;2023-07-16T07:57:25;6.03;;;4.28;;
14732;SDS011;7457;50.960;6.830;2023-07-16T07:59:51;6.45;;;4.25;;
14732;SDS011;7457;50.960;6.830;2023-07-16T08:02:21;8.05;;;4.43;;
14732;SDS011;7457;50.960;6.830;2023-07-16T08:04:49;6.55;;;4.30;;
14732;SDS011;7457;50.960;6.830;2023-07-16T08:07:18;12.35;;;4.57;;
14732;SDS011;7457;50.960;6.830;2023-07-16T08:09:43;8.48;;;4.28;;
14732;SDS011;7457;50.960;6.830;2023-07-16T08:12:09;7.03;;;4.20;;
14732;SDS011;7457;50.960;6.830;2023-07-16T08:14:35;5.88;;;4.13;;
14732;SDS011;7457;50.960;6.830;2023-07-16T08:17:01;6.72;;;4.45;;
14732;SDS011;7457;50.960;6.830;2023-07-16T08:19:26;10.27;;;4.80;;
14732;SDS011;7457;50.960;6.830;2023-07-16T08:21:52;9.68;;;4.68;;
14732;SDS011;7457;50.960;6.830;2023-07-16T08:24:18;7.70;;;4.47;;
14732;SDS011;7457;50.960;6.830;2023-07-16T08:26:44;5.50;;;4.00;;
14732;SDS011;7457;50.960;6.830;2023-07-16T08:29:10;7.10;;;4.55;;
14732;SDS011;7457;50.960;6.830;2023-07-16T08:31:35;8.23;;;4.47;;
14732;SDS011;7457;50.960;6.830;2023-07-16T08:34:01;5.93;;;4.20;;
14732;SDS011;7457;50.960;6.830;2023-07-16T08:36:28;9.52;;;4.55;;
14732;SDS011;7457;50.960;6.830;2023-07-16T08:38:54;7.47;;;4.50;;
14732;SDS011;7457;50.960;6.830;2023-07-16T08:41:20;6.95;;;4.40;;
14732;SDS011;7457;50.960;6.830;2023-07-16T08:43:46;7.20;;;4.38;;
14732;SDS011;7457;50.960;6.830;2023-07-16T08:46:15;8.38;;;4.07;;
14732;SDS011;7457;50.960;6.830;2023-07-16T08:48:40;7.35;;;3.85;;
14732;SDS011;7457;50.960;6.830;2023-07-16T08:51:06;9.95;;;4.60;;
14732;SDS011;7457;50.960;6.830;2023-07-16T08:53:33;9.68;;;4.70;;
14732;SDS011;7457;50.960;6.830;2023-07-16T08:55:59;6.18;;;4.22;;
14732;SDS011;7457;50.960;6.830;2023-07-16T08:58:27;9.65;;;4.53;;
14732;SDS011;7457;50.960;6.830;2023-07-16T09:00:55;7.47;;;4.10;;
14732;SDS011;7457;50.960;6.830;2023-07-16T09:03:21;7.55;;;3.92;;
14732;SDS011;7457;50.960;6.830;2023-07-16T09:05:47;7.10;;;4.45;;
14732;SDS011;7457;50.960;6.830;2023-07-16T09:08:13;7.38;;;3.85;;
14732;SDS011;7457;50.960;6.830;2023-07-16T09:10:42;8.98;;;3.80;;
14732;SDS011;7457;50.960;6.830;2023-07-16T09:13:08;3.78;;;3.35;;
14732;SDS011;7457;50.960;6.830;2023-07-16T09:15:35;8.57;;;3.72;;
14732;SDS011;7457;50.960;6.830;2023-07-16T09:18:02;4.57;;;3.15;;
14732;SDS011;7457;50.960;6.830;2023-07-16T09:20:30;4.50;;;3.40;;
14732;SDS011;7457;50.960;6.830;2023-07-16T09:22:57;6.60;;;3.85;;
14732;SDS011;7457;50.960;6.830;2023-07-16T09:25:29;7.05;;;3.83;;
14732;SDS011;7457;50.960;6.830;2023-07-16T09:27:57;6.55;;;3.47;;
14732;SDS011;7457;50.960;6.830;2023-07-16T09:30:23;4.68;;;3.20;;
14732;SDS011;7457;50.960;6.830;2023-07-16T09:32:49;5.80;;;3.15;;
14732;SDS011;7457;50.960;6.830;2023-07-16T09:35:16;5.15;;;3.47;;
14732;SDS011;7457;50.960;6.830;2023-07-16T09:37:42;5.25;;;3.13;;
14732;SDS011;7457;50.960;6.830;2023-07-16T09:40:10;6.25;;;2.88;;
14732;SDS011;7457;50.960;6.830;2023-07-16T09:42:41;5.03;;;3.10;;
14732;SDS011;7457;50.960;6.830;2023-07-16T09:45:08;4.85;;;3.00;;
14732;SDS011;7457;50.960;6.830;2023-07-16T09:47:41;5.20;;;3.30;;
14732;SDS011;7457;50.960;6.830;2023-07-16T09:50:07;8.25;;;3.15;;
14732;SDS011;7457;50.960;6.830;2023-07-16T09:52:34;7.90;;;2.80;;
14732;SDS011;7457;50.960;6.830;2023-07-16T09:55:03;9.23;;;3.10;;
14732;SDS011;7457;50.960;6.830;2023-07-16T09:57:32;6.03;;;3.15;;
14732;SDS011;7457;50.960;6.830;2023-07-16T10:00:02;3.75;;;2.50;;
14732;SDS011;7457;50.960;6.830;2023-07-16T10:02:33;4.72;;;2.95;;
14732;SDS011;7457;50.960;6.830;2023-07-16T10:05:00;5.93;;;2.78;;
14732;SDS011;7457;50.960;6.830;2023-07-16T10:07:43;10.40;;;3.10;;
14732;SDS011;7457;50.960;6.830;2023-07-16T10:10:16;5.00;;;3.05;;
14732;SDS011;7457;50.960;6.830;2023-07-16T10:12:42;4.47;;;2.75;;
14732;SDS011;7457;50.960;6.830;2023-07-16T10:15:24;6.22;;;3.17;;
14732;SDS011;7457;50.960;6.830;2023-07-16T10:17:52;7.95;;;2.80;;
14732;SDS011;7457;50.960;6.830;2023-07-16T10:20:27;5.18;;;2.63;;
14732;SDS011;7457;50.960;6.830;2023-07-16T10:22:53;3.58;;;2.63;;
14732;SDS011;7457;50.960;6.830;2023-07-16T10:27:45;5.22;;;2.88;;
14732;SDS011;7457;50.960;6.830;2023-07-16T10:30:12;5.18;;;3.20;;
14732;SDS011;7457;50.960;6.830;2023-07-16T10:32:38;5.38;;;2.90;;
14732;SDS011;7457;50.960;6.830;2023-07-16T10:35:05;6.07;;;3.20;;
14732;SDS011;7457;50.960;6.830;2023-07-16T10:37:33;5.20;;;3.20;;
14732;SDS011;7457;50.960;6.830;2023-07-16T10:39:59;6.10;;;3.05;;
14732;SDS011;7457;50.960;6.830;2023-07-16T10:42:26;4.90;;;3.10;;
14732;SDS011;7457;50.960;6.830;2023-07-16T10:44:54;5.45;;;3.05;;
14732;SDS011;7457;50.960;6.830;2023-07-16T10:47:29;7.90;;;3.42;;
14732;SDS011;7457;50.960;6.830;2023-07-16T10:49:55;5.50;;;3.00;;
14732;SDS011;7457;50.960;6.830;2023-07-16T10:52:21;8.40;;;3.22;;
14732;SDS011;7457;50.960;6.830;2023-07-16T10:54:47;5.22;;;3.08;;
14732;SDS011;7457;50.960;6.830;2023-07-16T10:57:15;7.07;;;3.28;;
14732;SDS011;7457;50.960;6.830;2023-07-16T10:59:41;5.55;;;3.72;;
14732;SDS011;7457;50.960;6.830;2023-07-16T11:02:10;4.43;;;3.10;;
14732;SDS011;7457;50.960;6.830;2023-07-16T11:04:40;5.60;;;2.90;;
14732;SDS011;7457;50.960;6.830;2023-07-16T11:07:09;4.57;;;3.40;;
14732;SDS011;7457;50.960;6.830;2023-07-16T11:09:45;8.38;;;3.00;;
14732;SDS011;7457;50.960;6.830;2023-07-16T11:12:13;4.07;;;3.22;;
14732;SDS011;7457;50.960;6.830;2023-07-16T11:14:57;5.22;;;3.25;;
14732;SDS011;7457;50.960;6.830;2023-07-16T11:17:24;3.55;;;3.10;;
14732;SDS011;7457;50.960;6.830;2023-07-16T11:19:50;6.75;;;3.47;;
14732;SDS011;7457;50.960;6.830;2023-07-16T11:22:17;5.78;;;2.90;;
14732;SDS011;7457;50.960;6.830;2023-07-16T11:24:44;4.32;;;3.08;;
14732;SDS011;7457;50.960;6.830;2023-07-16T11:27:18;5.63;;;3.15;;
14732;SDS011;7457;50.960;6.830;2023-07-16T11:35:04;4.40;;;3.20;;
14732;SDS011;7457;50.960;6.830;2023-07-16T11:37:31;13.90;;;3.55;;
14732;SDS011;7457;50.960;6.830;2023-07-16T11:39:58;4.57;;;3.00;;
14732;SDS011;7457;50.960;6.830;2023-07-16T11:42:29;5.63;;;3.78;;
14732;SDS011;7457;50.960;6.830;2023-07-16T11:44:54;8.07;;;3.33;;
14732;SDS011;7457;50.960;6.830;2023-07-16T11:47:20;7.55;;;4.55;;
14732;SDS011;7457;50.960;6.830;2023-07-16T11:49:47;6.40;;;4.32;;
14732;SDS011;7457;50.960;6.830;2023-07-16T11:52:20;12.43;;;3.63;;
14732;SDS011;7457;50.960;6.830;2023-07-16T11:54:47;6.20;;;3.35;;
14732;SDS011;7457;50.960;6.830;2023-07-16T11:57:14;4.13;;;3.08;;
14732;SDS011;7457;50.960;6.830;2023-07-16T11:59:39;4.78;;;3.05;;
14732;SDS011;7457;50.960;6.830;2023-07-16T12:02:05;3.65;;;3.30;;
14732;SDS011;7457;50.960;6.830;2023-07-16T12:04:31;4.78;;;3.53;;
14732;SDS011;7457;50.960;6.830;2023-07-16T12:06:57;7.80;;;2.83;;
14732;SDS011;7457;50.960;6.830;2023-07-16T12:09:23;4.57;;;2.92;;
14732;SDS011;7457;50.960;6.830;2023-07-16T12:11:48;3.70;;;2.55;;
14732;SDS011;7457;50.960;6.830;2023-07-16T12:14:15;4.68;;;3.00;;
14732;SDS011;7457;50.960;6.830;2023-07-16T12:16:40;6.65;;;3.42;;
14732;SDS011;7457;50.960;6.830;2023-07-16T12:19:07;5.32;;;3.25;;
14732;SDS011;7457;50.960;6.830;2023-07-16T12:21:34;6.60;;;2.75;;
14732;SDS011;7457;50.960;6.830;2023-07-16T12:23:59;6.47;;;3.58;;
14732;SDS011;7457;50.960;6.830;2023-07-16T12:26:25;5.72;;;2.92;;
14732;SDS011;7457;50.960;6.830;2023-07-16T12:28:50;5.38;;;3.30;;
14732;SDS011;7457;50.960;6.830;2023-07-16T12:31:16;7.38;;;3.03;;
14732;SDS011;7457;50.960;6.830;2023-07-16T12:33:42;7.28;;;3.58;;
14732;SDS011;7457;50.960;6.830;2023-07-16T12:36:09;5.65;;;3.70;;
14732;SDS011;7457;50.960;6.830;2023-07-16T12:38:34;5.93;;;3.45;;
14732;SDS011;7457;50.960;6.830;2023-07-16T12:41:00;5.00;;;3.75;;
14732;SDS011;7457;50.960;6.830;2023-07-16T12:43:26;8.45;;;3.78;;
14732;SDS011;7457;50.960;6.830;2023-07-16T12:45:51;10.93;;;3.83;;
14732;SDS011;7457;50.960;6.830;2023-07-16T12:48:17;4.38;;;3.45;;
14732;SDS011;7457;50.960;6.830;2023-07-16T12:50:43;3.38;;;2.95;;
14732;SDS011;7457;50.960;6.830;2023-07-16T12:53:08;5.13;;;3.38;;
14732;SDS011;7457;50.960;6.830;2023-07-16T12:55:34;7.47;;;3.42;;
14732;SDS011;7457;50.960;6.830;2023-07-16T12:58:00;3.80;;;3.42;;
14732;SDS011;7457;50.960;6.830;2023-07-16T13:00:25;3.65;;;2.75;;
14732;SDS011;7457;50.960;6.830;2023-07-16T13:02:51;5.30;;;3.50;;
14732;SDS011;7457;50.960;6.830;2023-07-16T13:05:17;5.28;;;3.38;;
14732;SDS011;7457;50.960;6.830;2023-07-16T13:07:45;5.70;;;3.67;;
14732;SDS011;7457;50.960;6.830;2023-07-16T13:10:10;3.67;;;2.97;;
14732;SDS011;7457;50.960;6.830;2023-07-16T13:12:36;6.40;;;3.22;;
14732;SDS011;7457;50.960;6.830;2023-07-16T13:15:02;6.93;;;3.53;;
14732;SDS011;7457;50.960;6.830;2023-07-16T13:17:27;4.60;;;3.78;;
14732;SDS011;7457;50.960;6.830;2023-07-16T13:19:53;4.30;;;3.38;;
14732;SDS011;7457;50.960;6.830;2023-07-16T13:22:19;5.55;;;3.75;;
14732;SDS011;7457;50.960;6.830;2023-07-16T13:24:44;4.88;;;3.30;;
14732;SDS011;7457;50.960;6.830;2023-07-16T13:27:19;4.97;;;3.10;;
14732;SDS011;7457;50.960;6.830;2023-07-16T13:29:45;6.15;;;3.33;;
14732;SDS011;7457;50.960;6.830;2023-07-16T13:32:11;5.18;;;3.42;;
14732;SDS011;7457;50.960;6.830;2023-07-16T13:34:37;4.38;;;3.30;;
14732;SDS011;7457;50.960;6.830;2023-07-16T13:37:03;5.30;;;3.40;;
14732;SDS011;7457;50.960;6.830;2023-07-16T13:39:29;4.95;;;3.20;;
14732;SDS011;7457;50.960;6.830;2023-07-16T13:41:55;4.57;;;3.47;;
14732;SDS011;7457;50.960;6.830;2023-07-16T13:44:20;4.72;;;3.45;;
14732;SDS011;7457;50.960;6.830;2023-07-16T13:46:46;5.95;;;2.90;;
14732;SDS011;7457;50.960;6.830;2023-07-16T13:49:12;5.20;;;2.55;;
14732;SDS011;7457;50.960;6.830;2023-07-16T13:51:38;5.10;;;3.08;;
14732;SDS011;7457;50.960;6.830;2023-07-16T13:54:04;6.22;;;3.45;;
14732;SDS011;7457;50.960;6.830;2023-07-16T13:56:30;7.80;;;3.10;;
14732;SDS011;7457;50.960;6.830;2023-07-16T13:58:56;7.88;;;2.90;;
14732;SDS011;7457;50.960;6.830;2023-07-16T14:01:22;6.90;;;2.55;;
14732;SDS011;7457;50.960;6.830;2023-07-16T14:03:48;6.75;;;3.28;;
14732;SDS011;7457;50.960;6.830;2023-07-16T14:06:13;6.03;;;2.90;;
14732;SDS011;7457;50.960;6.830;2023-07-16T14:08:39;5.75;;;3.30;;
14732;SDS011;7457;50.960;6.830;2023-07-16T14:11:05;6.63;;;3.45;;
14732;SDS011;7457;50.960;6.830;2023-07-16T14:13:31;8.35;;;3.00;;
14732;SDS011;7457;50.960;6.830;2023-07-16T14:15:56;6.60;;;2.97;;
14732;SDS011;7457;50.960;6.830;2023-07-16T14:18:22;8.02;;;2.88;;
14732;SDS011;7457;50.960;6.830;2023-07-16T14:20:48;3.95;;;3.00;;
14732;SDS011;7457;50.960;6.830;2023-07-16T14:23:13;4.13;;;2.97;;
14732;SDS011;7457;50.960;6.830;2023-07-16T14:25:39;4.18;;;3.00;;
14732;SDS011;7457;50.960;6.830;2023-07-16T14:28:04;5.38;;;3.05;;
14732;SDS011;7457;50.960;6.830;2023-07-16T14:30:30;7.43;;;3.55;;
14732;SDS011;7457;50.960;6.830;2023-07-16T14:32:56;7.38;;;3.45;;
14732;SDS011;7457;50.960;6.830;2023-07-16T14:35:21;6.00;;;3.05;;
14732;SDS011;7457;50.960;6.830;2023-07-16T14:37:47;6.28;;;2.75;;
14732;SDS011;7457;50.960;6.830;2023-07-16T14:40:13;5.18;;;2.75;;
14732;SDS011;7457;50.960;6.830;2023-07-16T14:42:39;3.70;;;3.10;;
14732;SDS011;7457;50.960;6.830;2023-07-16T14:45:06;6.35;;;3.10;;
14732;SDS011;7457;50.960;6.830;2023-07-16T14:47:33;5.18;;;2.67;;
14732;SDS011;7457;50.960;6.830;2023-07-16T14:49:58;3.25;;;2.75;;
14732;SDS011;7457;50.960;6.830;2023-07-16T14:52:24;5.05;;;2.90;;
14732;SDS011;7457;50.960;6.830;2023-07-16T14:54:50;5.47;;;3.25;;
14732;SDS011;7457;50.960;6.830;2023-07-16T14:57:16;3.45;;;2.90;;
14732;SDS011;7457;50.960;6.830;2023-07-16T14:59:42;5.25;;;2.88;;
14732;SDS011;7457;50.960;6.830;2023-07-16T15:02:08;5.13;;;2.65;;
14732;SDS011;7457;50.960;6.830;2023-07-16T15:04:34;4.40;;;3.17;;
14732;SDS011;7457;50.960;6.830;2023-07-16T15:06:59;6.20;;;2.90;;
14732;SDS011;7457;50.960;6.830;2023-07-16T15:09:25;6.60;;;2.83;;